You are not logged in, Click here to log in
上海虹橋國際機場SHA / ZSSS 中國上海市長寧區、閔行區
ICAO: ZSSS Country: 中國上海市長寧區、閔行區
Latitude: 31.1919 Longitude: 121.337
Total Arrivals: 57 Total Departures: 56
Latest Arrival: BR772 (RCSS-ZSSS)Lun. Wang Latest Departure: FS30 (ZSSS-RJOA)CHU. CHUHAO
Scenery:
METAR : ZSSS 131130Z 19002MPS CAVOK 12/06 Q1024 NOSIG

上海虹橋國際機場SHA

You are accessing this site from IP address 100.26.176.182. Virtual Airline. CMS by phpVMS.Website designed by Zumeweb and edited by Theo Bearman.
There is 0 User(s) Online: | and 3 Guest(s) Online.
All information on this site is for fight simulation purposes only. This site is for flight logging for pilots of Virtual Airline&模擬飛行論壇 FlySim only.